createdAt,value
2023-04-29T00:01:27.063Z,58.24
2023-04-29T00:03:54.681Z,58.37
2023-04-29T00:06:22.704Z,58.59
2023-04-29T00:08:50.097Z,58.88
2023-04-29T00:11:17.324Z,59.07
2023-04-29T00:13:44.486Z,58.78
2023-04-29T00:16:11.706Z,58.61
2023-04-29T00:18:38.864Z,58.63
2023-04-29T00:21:06.229Z,58.13
2023-04-29T00:23:36.680Z,57.90
2023-04-29T00:26:04.143Z,57.84
2023-04-29T00:28:31.723Z,58.10
2023-04-29T00:30:58.816Z,57.61
2023-04-29T00:33:25.957Z,57.88
2023-04-29T00:35:53.337Z,57.78
2023-04-29T00:38:21.255Z,57.96
2023-04-29T00:40:48.902Z,57.90
2023-04-29T00:43:16.126Z,58.05
2023-04-29T00:45:44.349Z,58.40
2023-04-29T00:48:11.363Z,58.92
2023-04-29T00:50:38.539Z,58.79
2023-04-29T00:53:05.766Z,58.37
2023-04-29T00:55:34.363Z,58.42
2023-04-29T00:58:02.988Z,58.50
2023-04-29T01:00:31.089Z,58.51
2023-04-29T01:02:59.855Z,58.42
2023-04-29T01:05:27.859Z,58.41
2023-04-29T01:08:28.997Z,58.79
2023-04-29T01:11:09.596Z,58.85
2023-04-29T01:13:49.131Z,59.11
2023-04-29T01:16:39.426Z,59.27
2023-04-29T01:19:41.346Z,59.45
2023-04-29T01:22:08.428Z,59.58
2023-04-29T01:24:35.768Z,59.44
2023-04-29T01:27:32.220Z,59.19
2023-04-29T01:30:40.073Z,59.26
2023-04-29T01:33:27.853Z,59.30
2023-04-29T01:36:45.884Z,59.60
2023-04-29T01:40:09.547Z,59.76
2023-04-29T01:43:04.376Z,59.98
2023-04-29T01:45:35.079Z,59.60
2023-04-29T01:48:04.872Z,58.71
2023-04-29T01:50:32.890Z,58.85
2023-04-29T01:53:08.394Z,59.48
2023-04-29T01:55:35.590Z,59.60
2023-04-29T01:58:15.947Z,60.03
2023-04-29T02:00:57.833Z,60.23
2023-04-29T02:03:27.064Z,60.49
2023-04-29T02:05:57.692Z,60.62
2023-04-29T02:08:24.913Z,60.46
2023-04-29T02:10:59.337Z,60.88
2023-04-29T02:13:34.096Z,60.99
2023-04-29T02:16:14.244Z,62.38
2023-04-29T02:18:46.310Z,62.89
2023-04-29T02:21:13.416Z,63.83
2023-04-29T02:23:40.738Z,64.92
2023-04-29T02:26:09.796Z,65.28
2023-04-29T02:28:37.007Z,66.18
2023-04-29T02:31:04.828Z,66.69
2023-04-29T02:33:33.196Z,66.72
2023-04-29T02:36:00.353Z,66.68
2023-04-29T02:38:27.416Z,66.42
2023-04-29T02:40:54.470Z,66.00
2023-04-29T02:43:22.295Z,65.33
2023-04-29T02:45:49.448Z,65.12
2023-04-29T02:48:17.126Z,64.86
2023-04-29T02:50:44.346Z,64.92
2023-04-29T02:53:11.754Z,64.67
2023-04-29T02:55:38.912Z,64.52
2023-04-29T02:58:09.868Z,64.57
2023-04-29T03:00:36.959Z,64.59
2023-04-29T03:03:04.221Z,64.10
2023-04-29T03:05:32.163Z,64.00
2023-04-29T03:07:59.282Z,63.78
2023-04-29T03:10:26.390Z,63.83
2023-04-29T03:12:53.473Z,63.33
2023-04-29T03:15:20.833Z,63.45
2023-04-29T03:17:49.573Z,63.07
2023-04-29T03:20:16.815Z,63.01
2023-04-29T03:22:43.880Z,62.80
2023-04-29T03:25:11.089Z,62.72
2023-04-29T03:27:39.841Z,62.69
2023-04-29T03:30:09.005Z,62.61
2023-04-29T03:32:41.820Z,62.57
2023-04-29T03:35:09.293Z,62.58
2023-04-29T03:37:40.382Z,63.14
2023-04-29T03:40:22.106Z,62.81
2023-04-29T03:42:50.392Z,62.87
2023-04-29T03:45:19.506Z,62.94
2023-04-29T03:47:46.762Z,63.07
2023-04-29T03:50:13.827Z,63.29
2023-04-29T03:52:41.615Z,63.47
2023-04-29T03:55:15.199Z,63.48
2023-04-29T03:57:44.390Z,63.32
2023-04-29T04:00:13.579Z,63.34
2023-04-29T04:02:40.812Z,63.42
2023-04-29T04:05:11.098Z,63.33
2023-04-29T04:07:41.465Z,63.33
2023-04-29T04:10:31.699Z,63.21
2023-04-29T04:13:00.804Z,63.29
2023-04-29T04:15:27.972Z,63.09
2023-04-29T04:17:56.450Z,63.15
2023-04-29T04:20:23.652Z,63.02
2023-04-29T04:22:51.452Z,62.75
2023-04-29T04:25:23.908Z,62.71
2023-04-29T04:27:52.665Z,62.76
2023-04-29T04:30:31.538Z,62.85
2023-04-29T04:32:58.888Z,62.23
2023-04-29T04:35:29.098Z,62.23
2023-04-29T04:37:56.374Z,62.25
2023-04-29T04:40:23.602Z,62.36
2023-04-29T04:43:20.527Z,63.01
2023-04-29T04:45:51.019Z,63.38
2023-04-29T04:48:18.642Z,63.67
2023-04-29T04:50:49.694Z,63.96
2023-04-29T04:53:17.516Z,63.79
2023-04-29T04:55:51.698Z,63.67
2023-04-29T04:58:19.337Z,63.19
2023-04-29T05:00:47.028Z,63.18
2023-04-29T05:03:14.458Z,62.87
2023-04-29T05:05:45.944Z,62.82
2023-04-29T05:08:13.543Z,62.03
2023-04-29T05:10:45.502Z,61.23
2023-04-29T05:13:13.291Z,60.86
2023-04-29T05:15:40.888Z,60.72
2023-04-29T05:18:09.654Z,60.80
2023-04-29T05:20:37.308Z,60.85
2023-04-29T05:23:05.892Z,61.43
2023-04-29T05:25:38.097Z,61.61
2023-04-29T05:28:07.492Z,61.47
2023-04-29T05:30:38.082Z,61.46
2023-04-29T05:33:06.657Z,61.68
2023-04-29T05:35:34.465Z,61.32
2023-04-29T05:38:01.848Z,60.38
2023-04-29T05:40:41.147Z,59.28
2023-04-29T05:43:31.281Z,59.10
2023-04-29T05:45:58.907Z,58.82
2023-04-29T05:48:26.204Z,58.97
2023-04-29T05:50:54.357Z,58.35
2023-04-29T05:53:21.849Z,58.48
2023-04-29T05:55:51.378Z,58.02
2023-04-29T05:58:20.744Z,57.76
2023-04-29T06:00:49.581Z,57.73
2023-04-29T06:03:21.827Z,57.03
2023-04-29T06:05:57.018Z,57.77
2023-04-29T06:08:42.840Z,56.92
2023-04-29T06:11:23.492Z,56.83
2023-04-29T06:13:51.056Z,56.79
2023-04-29T06:16:18.494Z,56.78
2023-04-29T06:18:46.005Z,56.87
2023-04-29T06:21:15.071Z,56.47
2023-04-29T06:23:43.259Z,56.59
2023-04-29T06:26:16.388Z,56.88
2023-04-29T06:28:44.092Z,57.01
2023-04-29T06:31:11.865Z,57.25
2023-04-29T06:33:39.384Z,56.28
2023-04-29T06:36:07.013Z,55.84
2023-04-29T06:39:03.889Z,55.33
2023-04-29T06:41:31.109Z,56.01
2023-04-29T06:44:31.117Z,57.03
2023-04-29T06:47:24.634Z,56.31
2023-04-29T06:50:05.283Z,57.59
2023-04-29T06:52:33.483Z,57.62
2023-04-29T06:55:00.814Z,57.68
2023-04-29T06:57:27.987Z,58.93
2023-04-29T06:59:55.369Z,59.17
2023-04-29T07:02:22.722Z,57.80
2023-04-29T07:04:50.978Z,57.22
2023-04-29T07:07:18.254Z,56.85
2023-04-29T07:09:45.549Z,58.24
2023-04-29T07:12:12.708Z,58.53
2023-04-29T07:14:40.969Z,58.69
2023-04-29T07:17:08.653Z,59.66
2023-04-29T07:19:35.992Z,59.16
2023-04-29T07:22:04.058Z,60.72
2023-04-29T07:24:31.520Z,60.58
2023-04-29T07:26:58.607Z,59.52
2023-04-29T07:29:25.774Z,59.41
2023-04-29T07:31:56.155Z,58.96
2023-04-29T07:34:23.546Z,58.44
2023-04-29T07:36:51.155Z,57.92
2023-04-29T07:39:18.641Z,58.01
2023-04-29T07:41:49.113Z,57.23
2023-04-29T07:44:16.231Z,56.94
2023-04-29T07:46:43.494Z,55.66
2023-04-29T07:49:10.747Z,54.43
2023-04-29T07:51:37.854Z,55.04
2023-04-29T07:54:04.984Z,53.64
2023-04-29T07:56:32.258Z,54.43
2023-04-29T07:59:01.369Z,54.95
2023-04-29T08:01:28.763Z,55.06
2023-04-29T08:03:56.124Z,55.09
2023-04-29T08:06:25.234Z,55.15
2023-04-29T08:08:52.803Z,55.58
2023-04-29T08:11:20.901Z,55.59
2023-04-29T08:13:48.756Z,54.35
2023-04-29T08:16:17.459Z,53.62
2023-04-29T08:18:45.018Z,54.18
2023-04-29T08:21:12.531Z,54.68
2023-04-29T08:23:40.686Z,54.82
2023-04-29T08:26:07.978Z,55.72
2023-04-29T08:28:35.147Z,55.89
2023-04-29T08:31:02.407Z,56.28
2023-04-29T08:33:29.806Z,56.68
2023-04-29T08:36:01.691Z,57.81
2023-04-29T08:38:29.450Z,57.01
2023-04-29T08:40:56.943Z,56.01
2023-04-29T08:43:24.724Z,55.75
2023-04-29T08:45:52.464Z,55.38
2023-04-29T08:48:20.412Z,57.08
2023-04-29T08:50:47.797Z,57.81
2023-04-29T08:53:15.224Z,57.23
2023-04-29T08:55:44.676Z,57.24
2023-04-29T08:58:14.118Z,56.34
2023-04-29T09:00:43.776Z,55.83
2023-04-29T09:03:27.893Z,56.42
2023-04-29T09:05:57.080Z,56.52
2023-04-29T09:08:24.813Z,56.25
2023-04-29T09:10:53.325Z,55.93
2023-04-29T09:13:28.042Z,56.95
2023-04-29T09:15:55.796Z,57.26
2023-04-29T09:18:52.096Z,58.46
2023-04-29T09:21:22.568Z,59.04
2023-04-29T09:24:03.890Z,58.57
2023-04-29T09:26:43.246Z,58.27
2023-04-29T09:29:18.408Z,57.43
2023-04-29T09:31:46.659Z,57.70
2023-04-29T09:34:14.723Z,56.36
2023-04-29T09:36:45.672Z,56.25
2023-04-29T09:39:40.128Z,56.59
2023-04-29T09:42:07.279Z,56.04
2023-04-29T09:44:38.484Z,57.12
2023-04-29T09:47:10.442Z,56.64
2023-04-29T09:49:41.891Z,56.05
2023-04-29T09:52:15.218Z,54.91
2023-04-29T09:54:44.224Z,56.23
2023-04-29T09:57:14.963Z,55.56
2023-04-29T09:59:43.722Z,54.54
2023-04-29T10:02:15.782Z,53.48
2023-04-29T10:04:46.774Z,52.63
2023-04-29T10:07:18.366Z,52.90
2023-04-29T10:09:47.861Z,52.27
2023-04-29T10:12:20.744Z,52.42
2023-04-29T10:15:10.296Z,51.99
2023-04-29T10:17:42.656Z,52.81
2023-04-29T10:20:14.466Z,53.81
2023-04-29T10:22:49.663Z,53.48
2023-04-29T10:25:21.898Z,53.79
2023-04-29T10:27:53.422Z,52.40
2023-04-29T10:30:22.565Z,50.83
2023-04-29T10:32:52.752Z,50.20
2023-04-29T10:35:25.629Z,50.86
2023-04-29T10:37:54.742Z,50.56
2023-04-29T10:40:52.054Z,50.98
2023-04-29T10:43:25.184Z,50.89
2023-04-29T10:46:26.460Z,50.68
2023-04-29T10:49:05.082Z,51.12
2023-04-29T10:51:40.737Z,51.34
2023-04-29T10:54:16.106Z,50.99
2023-04-29T10:56:52.459Z,51.37
2023-04-29T10:59:42.514Z,51.87
2023-04-29T11:02:11.324Z,51.62
2023-04-29T11:05:12.575Z,50.25
2023-04-29T11:07:40.494Z,48.75
2023-04-29T11:10:08.196Z,48.89
2023-04-29T11:12:35.573Z,48.51
2023-04-29T11:15:06.032Z,48.67
2023-04-29T11:17:38.273Z,47.13
2023-04-29T11:20:13.799Z,45.67
2023-04-29T11:22:41.016Z,47.05
2023-04-29T11:25:09.680Z,46.97
2023-04-29T11:27:40.328Z,47.18
2023-04-29T11:30:08.479Z,46.34
2023-04-29T11:32:42.612Z,45.61
2023-04-29T11:35:14.926Z,46.65
2023-04-29T11:37:44.914Z,47.06
2023-04-29T11:40:13.808Z,45.93
2023-04-29T11:42:49.201Z,44.71
2023-04-29T11:45:19.937Z,44.13
2023-04-29T11:47:48.625Z,45.37
2023-04-29T11:50:20.689Z,46.57
2023-04-29T11:52:49.081Z,46.18
2023-04-29T11:55:16.476Z,47.60
2023-04-29T11:57:43.764Z,47.63
2023-04-29T12:00:13.084Z,45.92
2023-04-29T12:02:44.704Z,46.09
2023-04-29T12:05:13.695Z,46.46
2023-04-29T12:07:41.350Z,47.34
2023-04-29T12:12:41.412Z,47.14
2023-04-29T12:15:10.801Z,48.67
2023-04-29T12:17:39.183Z,50.23
2023-04-29T12:20:11.174Z,50.45
2023-04-29T12:22:38.660Z,50.55
2023-04-29T12:25:08.043Z,50.72
2023-04-29T12:27:37.181Z,49.93
2023-04-29T12:30:09.618Z,49.05
2023-04-29T12:32:39.297Z,48.79
2023-04-29T12:35:07.457Z,51.34
2023-04-29T12:37:35.448Z,51.57
2023-04-29T12:40:02.628Z,52.41
2023-04-29T12:42:36.440Z,53.32
2023-04-29T12:45:07.155Z,52.54
2023-04-29T12:47:37.618Z,52.09
2023-04-29T12:50:07.658Z,53.06
2023-04-29T12:52:36.895Z,53.64
2023-04-29T12:55:05.008Z,53.97
2023-04-29T12:57:32.689Z,54.99
2023-04-29T13:00:00.174Z,56.52
2023-04-29T13:02:28.375Z,56.28
2023-04-29T13:04:56.057Z,56.00
2023-04-29T13:07:23.884Z,55.13
2023-04-29T13:09:51.839Z,55.12
2023-04-29T13:12:19.017Z,55.40
2023-04-29T13:14:46.303Z,54.66
2023-04-29T13:17:13.763Z,54.19
2023-04-29T13:19:51.326Z,54.57
2023-04-29T13:22:19.670Z,53.71
2023-04-29T13:24:46.995Z,53.56
2023-04-29T13:27:14.378Z,53.58
2023-04-29T13:29:41.430Z,55.69
2023-04-29T13:32:08.975Z,57.51
2023-04-29T13:34:36.707Z,57.51
2023-04-29T13:37:03.871Z,56.72
2023-04-29T13:39:31.671Z,57.60
2023-04-29T13:41:59.721Z,57.85
2023-04-29T13:44:33.250Z,59.17
2023-04-29T13:47:05.593Z,58.42
2023-04-29T13:52:53.935Z,58.24
2023-04-29T13:59:53.290Z,60.12
2023-04-29T14:02:25.451Z,60.67
2023-04-29T14:04:54.487Z,59.87
2023-04-29T14:07:22.553Z,59.15
2023-04-29T14:09:49.756Z,58.53
2023-04-29T14:12:16.832Z,57.74
2023-04-29T14:14:43.958Z,57.03
2023-04-29T14:17:11.042Z,56.84
2023-04-29T14:19:38.102Z,57.14
2023-04-29T14:22:05.269Z,57.57
2023-04-29T14:24:32.421Z,57.20
2023-04-29T14:26:59.561Z,57.63
2023-04-29T14:29:26.606Z,57.41
2023-04-29T14:31:53.698Z,55.90
2023-04-29T14:34:21.234Z,57.14
2023-04-29T14:36:48.458Z,56.66
2023-04-29T14:39:15.688Z,55.72
2023-04-29T14:41:44.099Z,55.02
2023-04-29T14:44:11.466Z,54.72
2023-04-29T14:46:38.699Z,54.24
2023-04-29T14:49:06.442Z,54.17
2023-04-29T14:51:33.627Z,54.54
2023-04-29T14:54:01.095Z,54.92
2023-04-29T14:56:33.647Z,54.07
2023-04-29T14:59:01.125Z,54.39
2023-04-29T15:01:31.314Z,54.54
2023-04-29T15:03:59.404Z,54.42
2023-04-29T15:06:27.743Z,54.41
2023-04-29T15:08:55.052Z,53.87
2023-04-29T15:11:22.384Z,54.23
2023-04-29T15:13:49.704Z,53.23
2023-04-29T15:16:16.854Z,53.41
2023-04-29T15:18:45.768Z,53.75
2023-04-29T15:21:13.154Z,53.14
2023-04-29T15:23:40.514Z,53.99
2023-04-29T15:26:08.408Z,53.66
2023-04-29T15:28:35.642Z,53.59
2023-04-29T15:31:04.762Z,53.86
2023-04-29T15:33:33.112Z,54.30
2023-04-29T15:36:00.312Z,54.34
2023-04-29T15:38:27.460Z,53.77
2023-04-29T15:41:00.551Z,53.84
2023-04-29T15:43:28.908Z,54.01
2023-04-29T15:45:56.773Z,53.55
2023-04-29T15:48:25.038Z,53.26
2023-04-29T15:50:53.553Z,53.47
2023-04-29T15:53:20.913Z,53.65
2023-04-29T15:55:48.056Z,54.04
2023-04-29T15:58:15.127Z,54.74
2023-04-29T16:00:42.335Z,53.87
2023-04-29T16:03:09.465Z,53.54
2023-04-29T16:05:38.040Z,52.87
2023-04-29T16:08:05.925Z,53.35
2023-04-29T16:10:33.055Z,53.27
2023-04-29T16:13:01.129Z,52.87
2023-04-29T16:15:29.435Z,53.36
2023-04-29T16:17:56.930Z,53.84
2023-04-29T16:20:25.661Z,53.47
2023-04-29T16:22:53.431Z,53.17
2023-04-29T16:25:20.746Z,52.96
2023-04-29T16:27:50.391Z,53.60
2023-04-29T16:30:17.807Z,54.48
2023-04-29T16:32:47.453Z,54.31
2023-04-29T16:35:17.993Z,53.60
2023-04-29T16:37:45.143Z,53.09
2023-04-29T16:40:13.156Z,53.81
2023-04-29T16:42:40.247Z,53.12
2023-04-29T16:45:08.568Z,53.16
2023-04-29T16:47:36.816Z,53.32
2023-04-29T16:50:08.301Z,53.05
2023-04-29T16:52:35.466Z,53.46
2023-04-29T16:55:03.881Z,52.89
2023-04-29T16:57:31.971Z,53.69
2023-04-29T16:59:59.077Z,53.94
2023-04-29T17:02:26.367Z,52.97
2023-04-29T17:04:54.007Z,52.76
2023-04-29T17:07:21.552Z,52.36
2023-04-29T17:09:48.816Z,53.16
2023-04-29T17:12:21.897Z,53.70
2023-04-29T17:14:51.867Z,53.70
2023-04-29T17:17:19.395Z,53.68
2023-04-29T17:19:50.037Z,53.91
2023-04-29T17:22:17.538Z,53.78
2023-04-29T17:24:46.469Z,53.96
2023-04-29T17:27:13.931Z,54.33
2023-04-29T17:29:41.185Z,54.28
2023-04-29T17:32:15.337Z,54.57
2023-04-29T17:34:42.480Z,54.47
2023-04-29T17:37:09.907Z,54.62
2023-04-29T17:39:36.925Z,54.17
2023-04-29T17:42:04.130Z,54.58
2023-04-29T17:44:31.275Z,55.08
2023-04-29T17:46:58.359Z,55.64
2023-04-29T17:49:25.744Z,55.44
2023-04-29T17:51:52.922Z,55.69
2023-04-29T17:54:19.987Z,55.71
2023-04-29T17:56:47.059Z,55.03
2023-04-29T17:59:14.201Z,56.04
2023-04-29T18:01:41.697Z,56.56
2023-04-29T18:04:08.972Z,56.00
2023-04-29T18:06:36.345Z,56.09
2023-04-29T18:09:04.700Z,56.07
2023-04-29T18:11:32.005Z,55.77
2023-04-29T18:13:59.182Z,55.77
2023-04-29T18:16:27.175Z,56.09
2023-04-29T18:18:56.744Z,56.21
2023-04-29T18:21:27.240Z,55.99
2023-04-29T18:23:55.890Z,55.53
2023-04-29T18:26:23.898Z,55.34
2023-04-29T18:28:51.517Z,55.84
2023-04-29T18:31:20.121Z,55.68
2023-04-29T18:33:47.301Z,55.55
2023-04-29T18:36:14.602Z,55.13
2023-04-29T18:38:41.950Z,54.94
2023-04-29T18:41:09.343Z,54.93
2023-04-29T18:43:36.643Z,55.06
2023-04-29T18:46:03.918Z,55.31
2023-04-29T18:48:31.541Z,55.53
2023-04-29T18:51:00.326Z,55.67
2023-04-29T18:53:27.454Z,55.63
2023-04-29T18:55:54.672Z,55.53
2023-04-29T18:58:22.207Z,55.35
2023-04-29T19:00:49.569Z,54.99
2023-04-29T19:03:16.735Z,54.82
2023-04-29T19:05:44.242Z,54.30
2023-04-29T19:08:11.665Z,54.18
2023-04-29T19:10:38.843Z,54.83
2023-04-29T19:13:05.914Z,54.79
2023-04-29T19:15:33.284Z,54.50
2023-04-29T19:18:00.399Z,54.46
2023-04-29T19:20:27.957Z,54.56
2023-04-29T19:22:55.068Z,55.11
2023-04-29T19:25:22.289Z,55.43
2023-04-29T19:27:50.981Z,55.01
2023-04-29T19:30:18.512Z,54.46
2023-04-29T19:32:46.613Z,54.83
2023-04-29T19:35:14.001Z,54.23
2023-04-29T19:37:41.176Z,54.45
2023-04-29T19:40:10.938Z,54.58
2023-04-29T19:42:39.517Z,54.58
2023-04-29T19:45:08.159Z,54.04
2023-04-29T19:47:36.244Z,54.57
2023-04-29T19:50:05.296Z,54.48
2023-04-29T19:52:32.400Z,54.84
2023-04-29T19:54:59.453Z,54.85
2023-04-29T19:57:27.552Z,54.62
2023-04-29T19:59:54.727Z,54.81
2023-04-29T20:02:22.134Z,54.91
2023-04-29T20:04:49.201Z,55.06
2023-04-29T20:07:16.448Z,54.88
2023-04-29T20:09:45.592Z,55.26
2023-04-29T20:12:12.969Z,54.97
2023-04-29T20:14:40.135Z,55.02
2023-04-29T20:17:07.795Z,54.95
2023-04-29T20:19:35.009Z,54.92
2023-04-29T20:22:02.141Z,55.12
2023-04-29T20:24:29.470Z,54.82
2023-04-29T20:26:56.648Z,54.42
2023-04-29T20:29:24.070Z,54.08
2023-04-29T20:31:51.671Z,53.84
2023-04-29T20:34:18.751Z,54.09
2023-04-29T20:36:46.349Z,54.48
2023-04-29T20:39:13.441Z,54.26
2023-04-29T20:41:40.983Z,54.54
2023-04-29T20:44:09.076Z,54.78
2023-04-29T20:46:36.517Z,54.77
2023-04-29T20:49:05.099Z,54.62
2023-04-29T20:51:33.013Z,54.46
2023-04-29T20:54:00.228Z,54.84
2023-04-29T20:56:27.329Z,54.06
2023-04-29T20:58:54.464Z,54.48
2023-04-29T21:01:24.839Z,54.37
2023-04-29T21:03:52.408Z,54.18
2023-04-29T21:06:19.862Z,53.88
2023-04-29T21:08:47.306Z,54.04
2023-04-29T21:11:14.407Z,54.37
2023-04-29T21:13:50.070Z,54.44
2023-04-29T21:16:18.702Z,53.98
2023-04-29T21:18:46.298Z,54.03
2023-04-29T21:21:13.538Z,53.93
2023-04-29T21:23:40.625Z,53.54
2023-04-29T21:26:07.674Z,53.88
2023-04-29T21:28:34.784Z,54.14
2023-04-29T21:31:01.990Z,53.94
2023-04-29T21:33:29.200Z,53.61
2023-04-29T21:35:56.303Z,53.52
2023-04-29T21:38:23.340Z,53.70
2023-04-29T21:40:51.163Z,53.84
2023-04-29T21:43:19.565Z,53.94
2023-04-29T21:45:46.688Z,53.68
2023-04-29T21:48:20.174Z,53.91
2023-04-29T21:50:47.719Z,53.90
2023-04-29T21:53:16.343Z,53.76
2023-04-29T21:55:43.881Z,53.92
2023-04-29T21:58:11.546Z,54.18
2023-04-29T22:00:41.091Z,53.76
2023-04-29T22:03:09.710Z,53.88
2023-04-29T22:05:37.310Z,53.92
2023-04-29T22:08:07.509Z,53.58
2023-04-29T22:10:34.914Z,53.52
2023-04-29T22:13:01.999Z,53.74
2023-04-29T22:15:30.013Z,53.77
2023-04-29T22:17:57.815Z,53.61
2023-04-29T22:20:25.444Z,53.72
2023-04-29T22:22:52.625Z,53.48
2023-04-29T22:25:21.748Z,53.85
2023-04-29T22:27:50.201Z,54.37
2023-04-29T22:30:17.866Z,54.63
2023-04-29T22:32:45.303Z,54.29
2023-04-29T22:35:12.625Z,54.57
2023-04-29T22:37:39.706Z,54.64
2023-04-29T22:40:07.710Z,54.40
2023-04-29T22:42:34.927Z,54.21
2023-04-29T22:45:02.411Z,54.19
2023-04-29T22:47:29.763Z,54.10
2023-04-29T22:49:56.970Z,54.27
2023-04-29T22:52:25.776Z,53.83
2023-04-29T22:54:53.130Z,54.35
2023-04-29T22:57:20.208Z,54.68
2023-04-29T22:59:47.321Z,54.71
2023-04-29T23:02:14.468Z,54.37
2023-04-29T23:04:41.576Z,54.43
2023-04-29T23:07:08.740Z,54.22
2023-04-29T23:09:36.028Z,54.42
2023-04-29T23:12:03.299Z,54.37
2023-04-29T23:14:30.361Z,54.10
2023-04-29T23:16:57.677Z,53.86
2023-04-29T23:19:24.888Z,53.69
2023-04-29T23:21:52.028Z,53.30
2023-04-29T23:24:19.157Z,53.47
2023-04-29T23:26:46.310Z,53.68
2023-04-29T23:29:13.380Z,54.06
2023-04-29T23:31:40.549Z,54.26
2023-04-29T23:34:08.283Z,53.69
2023-04-29T23:36:35.640Z,53.96
2023-04-29T23:39:02.908Z,53.95
2023-04-29T23:41:29.935Z,53.52
2023-04-29T23:44:01.049Z,53.59
2023-04-29T23:46:28.404Z,53.52
2023-04-29T23:48:55.651Z,53.36
2023-04-29T23:51:22.754Z,53.22
2023-04-29T23:53:50.107Z,53.56
2023-04-29T23:56:17.197Z,53.99
2023-04-29T23:58:44.252Z,53.57
